createdAt,value
2023-01-09T00:01:42.938Z,8.70
2023-01-09T00:04:11.450Z,8.70
2023-01-09T00:06:43.365Z,8.60
2023-01-09T00:09:11.835Z,8.70
2023-01-09T00:11:39.911Z,8.70
2023-01-09T00:14:11.037Z,8.60
2023-01-09T00:16:39.357Z,8.60
2023-01-09T00:19:07.591Z,8.60
2023-01-09T00:21:36.602Z,8.60
2023-01-09T00:24:05.350Z,8.50
2023-01-09T00:26:34.590Z,8.60
2023-01-09T00:29:04.714Z,8.50
2023-01-09T00:31:34.188Z,8.40
2023-01-09T00:34:06.383Z,8.40
2023-01-09T00:36:34.770Z,8.40
2023-01-09T00:39:02.865Z,8.40
2023-01-09T00:41:35.769Z,8.40
2023-01-09T00:44:08.488Z,8.40
2023-01-09T00:46:42.966Z,8.30
2023-01-09T00:49:12.251Z,8.30
2023-01-09T00:51:41.884Z,8.30
2023-01-09T00:54:11.827Z,8.30
2023-01-09T00:56:40.476Z,8.20
2023-01-09T00:59:09.048Z,8.20
2023-01-09T01:01:38.554Z,8.10
2023-01-09T01:04:20.645Z,8.10
2023-01-09T01:07:14.318Z,8.20
2023-01-09T01:09:42.482Z,8.20
2023-01-09T01:12:10.570Z,8.00
2023-01-09T01:14:39.806Z,7.90
2023-01-09T01:17:09.320Z,7.90
2023-01-09T01:19:38.061Z,7.80
2023-01-09T01:22:06.209Z,7.80
2023-01-09T01:24:35.075Z,7.80
2023-01-09T01:27:03.259Z,7.90
2023-01-09T01:29:31.464Z,7.90
2023-01-09T01:31:59.595Z,7.80
2023-01-09T01:34:29.974Z,7.90
2023-01-09T01:36:58.066Z,7.80
2023-01-09T01:39:26.211Z,7.80
2023-01-09T01:41:54.547Z,7.80
2023-01-09T01:45:01.613Z,7.80
2023-01-09T01:47:39.018Z,7.70
2023-01-09T01:50:15.113Z,7.60
2023-01-09T01:52:46.827Z,7.60
2023-01-09T01:55:15.277Z,7.70
2023-01-09T01:57:46.915Z,7.70
2023-01-09T02:00:15.741Z,7.80
2023-01-09T02:02:45.979Z,7.70
2023-01-09T02:05:15.506Z,7.70
2023-01-09T02:07:43.624Z,7.70
2023-01-09T02:10:11.986Z,7.60
2023-01-09T02:12:40.088Z,7.60
2023-01-09T02:15:11.566Z,7.60
2023-01-09T02:18:10.556Z,7.60
2023-01-09T02:20:52.867Z,7.60
2023-01-09T02:24:05.667Z,7.50
2023-01-09T02:26:49.295Z,7.50
2023-01-09T02:29:47.337Z,7.40
2023-01-09T02:32:28.442Z,7.40
2023-01-09T02:35:08.177Z,7.30
2023-01-09T02:37:44.593Z,7.30
2023-01-09T02:40:21.950Z,7.20
2023-01-09T02:42:50.954Z,7.20
2023-01-09T02:45:19.093Z,7.20
2023-01-09T02:47:49.086Z,7.20
2023-01-09T02:50:21.017Z,7.20
2023-01-09T02:53:06.171Z,7.10
2023-01-09T02:55:45.907Z,7.10
2023-01-09T02:58:22.018Z,7.10
2023-01-09T03:00:58.399Z,7.10
2023-01-09T03:03:35.797Z,7.10
2023-01-09T03:06:09.177Z,7.20
2023-01-09T03:08:41.129Z,7.20
2023-01-09T03:11:12.019Z,7.20
2023-01-09T03:13:45.665Z,7.40
2023-01-09T03:16:18.999Z,7.40
2023-01-09T03:18:50.369Z,7.50
2023-01-09T03:21:18.725Z,7.40
2023-01-09T03:23:48.384Z,7.40
2023-01-09T03:26:16.969Z,7.30
2023-01-09T03:28:45.621Z,7.20
2023-01-09T03:31:13.802Z,7.20
2023-01-09T03:33:42.774Z,7.20
2023-01-09T03:36:14.438Z,7.30
2023-01-09T03:38:42.576Z,7.30
2023-01-09T03:41:10.643Z,7.30
2023-01-09T03:43:39.067Z,7.40
2023-01-09T03:46:07.463Z,7.50
2023-01-09T03:48:35.650Z,7.50
2023-01-09T03:51:03.828Z,7.60
2023-01-09T03:53:33.446Z,7.70
2023-01-09T03:56:01.746Z,7.70
2023-01-09T03:58:29.936Z,7.70
2023-01-09T04:01:02.243Z,7.80
2023-01-09T04:03:30.610Z,7.80
2023-01-09T04:05:58.764Z,7.90
2023-01-09T04:08:26.961Z,7.80
2023-01-09T04:10:56.438Z,7.70
2023-01-09T04:13:24.874Z,7.70
2023-01-09T04:15:53.085Z,7.60
2023-01-09T04:18:21.517Z,7.60
2023-01-09T04:20:49.968Z,7.60
2023-01-09T04:23:18.242Z,7.60
2023-01-09T04:25:47.659Z,7.60
2023-01-09T04:28:17.107Z,7.60
2023-01-09T04:30:45.172Z,7.60
2023-01-09T04:33:13.301Z,7.60
2023-01-09T04:35:41.360Z,7.70
2023-01-09T04:38:09.524Z,7.70
2023-01-09T04:40:37.550Z,7.70
2023-01-09T04:43:05.683Z,7.70
2023-01-09T04:45:35.454Z,7.70
2023-01-09T04:48:03.748Z,7.70
2023-01-09T04:50:31.835Z,7.70
2023-01-09T04:52:59.967Z,7.70
2023-01-09T04:55:28.226Z,7.70
2023-01-09T04:57:56.307Z,7.80
2023-01-09T05:00:24.571Z,7.80
2023-01-09T05:02:54.015Z,7.80
2023-01-09T05:05:22.242Z,7.80
2023-01-09T05:07:50.294Z,7.90
2023-01-09T05:10:18.649Z,7.80
2023-01-09T05:12:46.703Z,7.80
2023-01-09T05:15:14.798Z,7.80
2023-01-09T05:17:42.873Z,7.70
2023-01-09T05:20:13.082Z,7.70
2023-01-09T05:22:41.186Z,7.70
2023-01-09T05:25:09.996Z,7.70
2023-01-09T05:27:38.136Z,7.60
2023-01-09T05:30:06.957Z,7.60
2023-01-09T05:32:34.978Z,7.60
2023-01-09T05:35:03.098Z,7.70
2023-01-09T05:37:32.787Z,7.70
2023-01-09T05:40:00.834Z,7.70
2023-01-09T05:42:28.905Z,7.70
2023-01-09T05:44:57.024Z,7.70
2023-01-09T05:47:25.230Z,7.80
2023-01-09T05:49:56.166Z,7.90
2023-01-09T05:52:24.376Z,7.90
2023-01-09T05:54:54.399Z,8.00
2023-01-09T05:57:22.806Z,8.00
2023-01-09T05:59:51.056Z,8.10
2023-01-09T06:02:19.175Z,8.10
2023-01-09T06:04:47.741Z,8.00
2023-01-09T06:07:20.300Z,8.00
2023-01-09T06:09:49.693Z,8.00
2023-01-09T06:12:19.196Z,8.00
2023-01-09T06:14:47.418Z,8.00
2023-01-09T06:17:15.494Z,8.00
2023-01-09T06:19:43.604Z,8.00
2023-01-09T06:22:11.713Z,8.00
2023-01-09T06:24:39.797Z,8.10
2023-01-09T06:27:07.911Z,8.00
2023-01-09T06:29:37.839Z,8.00
2023-01-09T06:32:06.377Z,8.00
2023-01-09T06:34:34.493Z,7.90
2023-01-09T06:37:02.660Z,8.00
2023-01-09T06:39:30.718Z,8.00
2023-01-09T06:41:58.812Z,8.00
2023-01-09T06:44:27.274Z,8.00
2023-01-09T06:46:56.692Z,8.00
2023-01-09T06:49:24.916Z,8.10
2023-01-09T06:51:53.543Z,8.10
2023-01-09T06:54:22.668Z,8.00
2023-01-09T06:56:50.741Z,7.90
2023-01-09T06:59:18.844Z,7.90
2023-01-09T07:01:47.064Z,7.80
2023-01-09T07:04:17.654Z,7.70
2023-01-09T07:06:48.776Z,7.70
2023-01-09T07:09:17.072Z,7.80
2023-01-09T07:11:45.229Z,7.80
2023-01-09T07:14:13.415Z,7.80
2023-01-09T07:16:41.468Z,7.80
2023-01-09T07:19:09.556Z,7.80
2023-01-09T07:21:41.906Z,7.80
2023-01-09T07:24:10.305Z,7.80
2023-01-09T07:26:38.382Z,7.80
2023-01-09T07:29:06.684Z,7.60
2023-01-09T07:31:34.818Z,7.50
2023-01-09T07:34:03.035Z,7.50
2023-01-09T07:36:31.146Z,7.40
2023-01-09T07:39:00.590Z,7.40
2023-01-09T07:41:28.704Z,7.50
2023-01-09T07:43:58.140Z,7.70
2023-01-09T07:46:26.352Z,7.70
2023-01-09T07:48:54.543Z,7.70
2023-01-09T07:51:22.789Z,7.70
2023-01-09T07:53:51.019Z,7.70
2023-01-09T07:56:20.523Z,7.80
2023-01-09T07:58:48.582Z,7.80
2023-01-09T08:01:16.889Z,7.90
2023-01-09T08:03:44.995Z,7.90
2023-01-09T08:06:13.319Z,8.00
2023-01-09T08:08:41.411Z,8.00
2023-01-09T08:11:09.741Z,8.10
2023-01-09T08:13:39.169Z,8.10
2023-01-09T08:16:08.035Z,8.10
2023-01-09T08:18:36.331Z,8.20
2023-01-09T08:21:04.482Z,8.20
2023-01-09T08:23:33.030Z,8.30
2023-01-09T08:26:01.166Z,8.30
2023-01-09T08:28:29.375Z,8.40
2023-01-09T08:30:58.915Z,8.40
2023-01-09T08:33:27.533Z,8.30
2023-01-09T08:35:56.161Z,8.30
2023-01-09T08:38:24.337Z,8.30
2023-01-09T08:40:52.377Z,8.30
2023-01-09T08:43:37.879Z,8.40
2023-01-09T08:46:28.118Z,8.40
2023-01-09T08:48:56.559Z,8.50
2023-01-09T08:51:24.634Z,8.50
2023-01-09T08:53:52.732Z,8.40
2023-01-09T08:56:20.793Z,8.40
2023-01-09T08:58:48.883Z,8.50
2023-01-09T09:01:18.429Z,8.50
2023-01-09T09:03:46.640Z,8.60
2023-01-09T09:06:15.293Z,8.60
2023-01-09T09:08:43.422Z,8.60
2023-01-09T09:11:11.715Z,8.60
2023-01-09T09:13:39.779Z,8.70
2023-01-09T09:16:08.348Z,8.90
2023-01-09T09:18:38.093Z,9.10
2023-01-09T09:21:06.345Z,9.20
2023-01-09T09:23:34.423Z,9.30
2023-01-09T09:26:02.601Z,9.30
2023-01-09T09:28:30.687Z,9.30
2023-01-09T09:30:58.776Z,9.20
2023-01-09T09:33:27.044Z,9.20
2023-01-09T09:35:56.607Z,9.40
2023-01-09T09:38:25.921Z,9.50
2023-01-09T09:41:33.709Z,9.60
2023-01-09T09:44:39.497Z,9.70
2023-01-09T09:47:17.861Z,9.70
2023-01-09T09:49:53.647Z,9.80
2023-01-09T09:52:31.916Z,9.90
2023-01-09T09:55:04.430Z,10.00
2023-01-09T09:57:38.060Z,10.00
2023-01-09T10:00:08.536Z,10.10
2023-01-09T10:02:50.478Z,10.10
2023-01-09T10:05:24.341Z,10.20
2023-01-09T10:07:55.048Z,10.20
2023-01-09T10:10:30.594Z,10.30
2023-01-09T10:13:20.518Z,10.40
2023-01-09T10:15:58.504Z,10.50
2023-01-09T10:18:33.179Z,10.50
2023-01-09T10:21:08.546Z,10.60
2023-01-09T10:24:00.565Z,10.60
2023-01-09T10:26:34.286Z,10.70
2023-01-09T10:29:15.879Z,10.80
2023-01-09T10:31:56.314Z,10.80
2023-01-09T10:34:36.340Z,10.90
2023-01-09T10:37:11.880Z,10.90
2023-01-09T10:39:47.958Z,11.00
2023-01-09T10:42:22.861Z,11.00
2023-01-09T10:44:58.075Z,11.10
2023-01-09T10:47:30.948Z,11.20
2023-01-09T10:49:59.851Z,11.20
2023-01-09T10:52:34.650Z,11.10
2023-01-09T10:55:13.955Z,11.20
2023-01-09T10:57:44.393Z,11.10
2023-01-09T11:00:21.021Z,11.20
2023-01-09T11:02:50.676Z,11.10
2023-01-09T11:05:22.873Z,11.10
2023-01-09T11:07:55.185Z,11.10
2023-01-09T11:10:24.838Z,11.10
2023-01-09T11:13:04.705Z,11.10
2023-01-09T11:15:32.957Z,11.10
2023-01-09T11:18:21.567Z,11.10
2023-01-09T11:20:49.926Z,11.10
2023-01-09T11:23:27.808Z,11.00
2023-01-09T11:25:59.402Z,11.00
2023-01-09T11:28:28.280Z,11.00
2023-01-09T11:31:00.684Z,11.00
2023-01-09T11:33:31.235Z,11.00
2023-01-09T11:36:04.122Z,11.10
2023-01-09T11:38:34.111Z,11.10
2023-01-09T11:41:06.654Z,11.10
2023-01-09T11:43:37.675Z,11.10
2023-01-09T11:46:08.923Z,11.10
2023-01-09T11:48:44.163Z,11.10
2023-01-09T11:51:21.811Z,11.00
2023-01-09T11:54:13.897Z,11.10
2023-01-09T11:56:43.977Z,11.20
2023-01-09T11:59:14.324Z,11.20
2023-01-09T12:01:58.877Z,11.20
2023-01-09T12:04:31.849Z,11.30
2023-01-09T12:07:36.977Z,11.40
2023-01-09T12:10:21.121Z,11.50
2023-01-09T12:12:59.016Z,11.50
2023-01-09T12:15:36.295Z,11.60
2023-01-09T12:18:25.372Z,11.70
2023-01-09T12:21:15.619Z,11.80
2023-01-09T12:24:04.002Z,11.80
2023-01-09T12:26:33.969Z,11.70
2023-01-09T12:29:19.186Z,11.70
2023-01-09T12:32:14.262Z,11.70
2023-01-09T12:35:00.325Z,11.60
2023-01-09T12:37:53.303Z,11.50
2023-01-09T12:40:39.839Z,11.40
2023-01-09T12:43:19.936Z,11.30
2023-01-09T12:46:01.081Z,11.20
2023-01-09T12:48:49.380Z,11.20
2023-01-09T12:51:29.343Z,11.10
2023-01-09T12:54:03.243Z,11.10
2023-01-09T12:56:35.521Z,11.20
2023-01-09T12:59:13.266Z,11.20
2023-01-09T13:01:46.721Z,11.20
2023-01-09T13:04:23.257Z,11.30
2023-01-09T13:06:55.585Z,11.30
2023-01-09T13:09:28.080Z,11.20
2023-01-09T13:12:04.302Z,11.20
2023-01-09T13:14:45.260Z,11.20
2023-01-09T13:17:21.033Z,11.30
2023-01-09T13:19:49.507Z,11.20
2023-01-09T13:22:19.088Z,11.10
2023-01-09T13:25:07.339Z,11.10
2023-01-09T13:27:39.844Z,11.10
2023-01-09T13:30:25.981Z,11.20
2023-01-09T13:33:04.374Z,11.20
2023-01-09T13:35:32.790Z,11.20
2023-01-09T13:38:01.331Z,11.20
2023-01-09T13:40:32.909Z,11.20
2023-01-09T13:43:05.202Z,11.20
2023-01-09T13:45:42.461Z,11.20
2023-01-09T13:48:39.808Z,11.20
2023-01-09T13:51:57.975Z,11.30
2023-01-09T13:55:03.374Z,11.30
2023-01-09T13:57:34.911Z,11.30
2023-01-09T14:00:44.403Z,11.30
2023-01-09T14:03:22.184Z,11.30
2023-01-09T14:06:20.416Z,11.30
2023-01-09T14:08:51.299Z,11.30
2023-01-09T14:11:27.611Z,11.30
2023-01-09T14:14:04.383Z,11.30
2023-01-09T14:16:33.761Z,11.40
2023-01-09T14:19:09.410Z,11.40
2023-01-09T14:21:48.989Z,11.40
2023-01-09T14:24:23.946Z,11.40
2023-01-09T14:26:57.076Z,11.40
2023-01-09T14:29:47.364Z,11.40
2023-01-09T14:32:44.617Z,11.40
2023-01-09T14:35:18.786Z,11.30
2023-01-09T14:38:00.959Z,11.40
2023-01-09T14:40:29.644Z,11.40
2023-01-09T14:43:02.225Z,11.40
2023-01-09T14:45:32.650Z,11.40
2023-01-09T14:48:05.342Z,11.40
2023-01-09T14:50:36.972Z,11.50
2023-01-09T14:53:12.665Z,11.40
2023-01-09T14:55:50.985Z,11.40
2023-01-09T14:58:27.876Z,11.40
2023-01-09T15:01:02.387Z,11.40
2023-01-09T15:03:36.294Z,11.40
2023-01-09T15:06:05.143Z,11.40
2023-01-09T15:08:34.942Z,11.30
2023-01-09T15:11:03.480Z,11.30
2023-01-09T15:13:36.085Z,11.30
2023-01-09T15:16:07.098Z,11.30
2023-01-09T15:18:42.395Z,11.30
2023-01-09T15:21:19.254Z,11.30
2023-01-09T15:23:48.877Z,11.30
2023-01-09T15:26:27.080Z,11.20
2023-01-09T15:29:01.562Z,11.20
2023-01-09T15:31:30.521Z,11.20
2023-01-09T15:33:58.975Z,11.10
2023-01-09T15:36:31.000Z,10.90
2023-01-09T15:39:01.222Z,10.90
2023-01-09T15:41:49.115Z,10.80
2023-01-09T15:44:20.515Z,10.80
2023-01-09T15:46:51.802Z,10.70
2023-01-09T15:49:20.747Z,10.70
2023-01-09T15:51:50.107Z,10.80
2023-01-09T15:54:26.551Z,10.90
2023-01-09T15:56:54.740Z,10.90
2023-01-09T15:59:27.046Z,10.90
2023-01-09T16:02:20.804Z,10.90
2023-01-09T16:04:49.656Z,10.80
2023-01-09T16:07:20.913Z,10.80
2023-01-09T16:09:52.864Z,10.80
2023-01-09T16:12:24.532Z,10.80
2023-01-09T16:14:55.345Z,10.80
2023-01-09T16:17:26.532Z,10.80
2023-01-09T16:19:57.830Z,10.80
2023-01-09T16:22:27.858Z,10.80
2023-01-09T16:25:01.318Z,10.70
2023-01-09T16:27:32.063Z,10.60
2023-01-09T16:30:01.173Z,10.60
2023-01-09T16:32:31.145Z,10.50
2023-01-09T16:35:02.309Z,10.40
2023-01-09T16:37:32.347Z,10.40
2023-01-09T16:40:31.945Z,10.30
2023-01-09T16:43:01.308Z,10.30
2023-01-09T16:45:32.257Z,10.20
2023-01-09T16:48:00.953Z,10.10
2023-01-09T16:50:29.591Z,10.10
2023-01-09T16:53:00.563Z,10.10
2023-01-09T16:55:30.059Z,10.10
2023-01-09T16:57:58.206Z,10.10
2023-01-09T17:00:26.697Z,10.00
2023-01-09T17:02:56.546Z,10.00
2023-01-09T17:05:24.817Z,9.90
2023-01-09T17:07:52.921Z,9.80
2023-01-09T17:10:23.054Z,9.80
2023-01-09T17:12:52.597Z,9.70
2023-01-09T17:15:20.988Z,9.70
2023-01-09T17:17:49.155Z,9.70
2023-01-09T17:20:19.058Z,9.70
2023-01-09T17:22:47.287Z,9.80
2023-01-09T17:25:33.859Z,9.80
2023-01-09T17:28:23.755Z,9.80
2023-01-09T17:30:52.220Z,9.80
2023-01-09T17:33:20.781Z,9.80
2023-01-09T17:35:48.945Z,9.70
2023-01-09T17:38:17.722Z,9.70
2023-01-09T17:40:46.177Z,9.70
2023-01-09T17:43:16.828Z,9.60
2023-01-09T17:45:45.535Z,9.60
2023-01-09T17:48:17.325Z,9.60
2023-01-09T17:50:45.905Z,9.60
2023-01-09T17:53:14.294Z,9.70
2023-01-09T17:55:43.267Z,9.70
2023-01-09T17:58:25.885Z,9.80
2023-01-09T18:00:54.389Z,9.80
2023-01-09T18:03:23.157Z,9.80
2023-01-09T18:05:51.352Z,9.90
2023-01-09T18:08:19.475Z,9.90
2023-01-09T18:10:48.692Z,9.80
2023-01-09T18:13:18.634Z,9.80
2023-01-09T18:15:47.730Z,9.70
2023-01-09T18:18:17.135Z,9.60
2023-01-09T18:20:46.407Z,9.60
2023-01-09T18:23:15.479Z,9.60
2023-01-09T18:25:44.644Z,9.70
2023-01-09T18:28:15.890Z,9.70
2023-01-09T18:30:47.725Z,9.70
2023-01-09T18:33:17.692Z,9.70
2023-01-09T18:35:46.766Z,9.60
2023-01-09T18:38:15.669Z,9.50
2023-01-09T18:40:44.081Z,9.50
2023-01-09T18:43:12.314Z,9.40
2023-01-09T18:45:41.103Z,9.50
2023-01-09T18:48:12.821Z,9.60
2023-01-09T18:50:40.986Z,9.60
2023-01-09T18:53:09.246Z,9.60
2023-01-09T18:55:37.856Z,9.60
2023-01-09T18:58:06.607Z,9.60
2023-01-09T19:00:35.032Z,9.70
2023-01-09T19:03:03.318Z,9.70
2023-01-09T19:05:34.622Z,9.70
2023-01-09T19:08:02.931Z,9.70
2023-01-09T19:10:31.252Z,9.70
2023-01-09T19:12:59.497Z,9.80
2023-01-09T19:15:29.842Z,9.70
2023-01-09T19:17:58.665Z,9.70
2023-01-09T19:20:27.040Z,9.70
2023-01-09T19:22:58.288Z,9.70
2023-01-09T19:25:26.868Z,9.70
2023-01-09T19:27:56.105Z,9.70
2023-01-09T19:30:24.357Z,9.70
2023-01-09T19:32:52.565Z,9.80
2023-01-09T19:35:21.248Z,9.80
2023-01-09T19:37:49.395Z,9.80
2023-01-09T19:40:19.107Z,9.80
2023-01-09T19:42:47.608Z,9.80
2023-01-09T19:45:15.807Z,9.80
2023-01-09T19:47:43.948Z,9.90
2023-01-09T19:50:13.145Z,9.90
2023-01-09T19:52:43.177Z,9.80
2023-01-09T19:55:13.605Z,9.90
2023-01-09T19:57:44.042Z,10.00
2023-01-09T20:00:13.615Z,9.90
2023-01-09T20:02:41.932Z,10.00
2023-01-09T20:05:11.047Z,9.90
2023-01-09T20:07:39.192Z,10.00
2023-01-09T20:10:08.365Z,10.00
2023-01-09T20:12:36.437Z,10.00
2023-01-09T20:15:09.860Z,10.00
2023-01-09T20:17:38.002Z,10.00
2023-01-09T20:20:07.364Z,10.00
2023-01-09T20:22:35.864Z,10.00
2023-01-09T20:25:03.954Z,10.00
2023-01-09T20:27:32.031Z,10.00
2023-01-09T20:30:00.277Z,10.00
2023-01-09T20:32:30.126Z,9.90
2023-01-09T20:34:58.425Z,9.90
2023-01-09T20:37:26.774Z,9.90
2023-01-09T20:39:54.927Z,9.90
2023-01-09T20:42:23.051Z,10.00
2023-01-09T20:44:51.161Z,10.00
2023-01-09T20:47:22.047Z,10.10
2023-01-09T20:49:51.621Z,10.10
2023-01-09T20:52:21.538Z,10.10
2023-01-09T20:54:49.779Z,10.10
2023-01-09T20:57:17.890Z,10.10
2023-01-09T20:59:46.291Z,10.20
2023-01-09T21:02:15.502Z,10.20
2023-01-09T21:04:43.789Z,10.30
2023-01-09T21:07:13.425Z,10.20
2023-01-09T21:09:42.134Z,10.30
2023-01-09T21:12:24.139Z,10.30
2023-01-09T21:14:52.574Z,10.30
2023-01-09T21:17:20.714Z,10.30
2023-01-09T21:19:50.111Z,10.30
2023-01-09T21:22:19.802Z,10.30
2023-01-09T21:24:49.891Z,10.30
2023-01-09T21:27:18.280Z,10.30
2023-01-09T21:29:46.731Z,10.30
2023-01-09T21:32:14.828Z,10.20
2023-01-09T21:34:42.930Z,10.20
2023-01-09T21:37:11.216Z,10.30
2023-01-09T21:39:40.769Z,10.30
2023-01-09T21:42:27.985Z,10.30
2023-01-09T21:45:13.736Z,10.30
2023-01-09T21:47:41.950Z,10.30
2023-01-09T21:50:11.096Z,10.30
2023-01-09T21:52:39.220Z,10.20
2023-01-09T21:55:10.098Z,10.20
2023-01-09T21:57:38.531Z,10.20
2023-01-09T22:00:07.965Z,10.20
2023-01-09T22:02:41.033Z,10.20
2023-01-09T22:05:09.408Z,10.20
2023-01-09T22:07:37.553Z,10.10
2023-01-09T22:10:06.433Z,10.10
2023-01-09T22:12:37.094Z,10.10
2023-01-09T22:15:06.884Z,10.10
2023-01-09T22:17:34.983Z,10.10
2023-01-09T22:20:03.176Z,10.10
2023-01-09T22:22:31.466Z,10.20
2023-01-09T22:24:59.692Z,10.20
2023-01-09T22:27:27.779Z,10.20
2023-01-09T22:29:57.263Z,10.20
2023-01-09T22:32:25.339Z,10.20
2023-01-09T22:34:53.432Z,10.20
2023-01-09T22:37:21.685Z,10.10
2023-01-09T22:39:49.736Z,10.10
2023-01-09T22:42:17.959Z,10.10
2023-01-09T22:44:46.019Z,10.10
2023-01-09T22:47:15.794Z,10.10
2023-01-09T22:49:52.685Z,10.10
2023-01-09T22:52:24.062Z,10.00
2023-01-09T22:54:52.274Z,9.90
2023-01-09T22:57:20.439Z,9.80
2023-01-09T22:59:48.536Z,9.80
2023-01-09T23:02:18.247Z,9.90
2023-01-09T23:04:46.531Z,10.00
2023-01-09T23:07:14.887Z,10.00
2023-01-09T23:09:43.071Z,10.00
2023-01-09T23:12:11.231Z,10.00
2023-01-09T23:14:40.117Z,10.00
2023-01-09T23:17:09.819Z,10.00
2023-01-09T23:19:40.409Z,10.00
2023-01-09T23:22:08.528Z,10.00
2023-01-09T23:24:36.658Z,10.00
2023-01-09T23:27:05.392Z,10.00
2023-01-09T23:29:39.308Z,10.00
2023-01-09T23:32:08.117Z,10.00
2023-01-09T23:34:36.301Z,10.00
2023-01-09T23:37:09.258Z,10.00
2023-01-09T23:39:37.363Z,10.00
2023-01-09T23:42:23.031Z,10.00
2023-01-09T23:44:51.106Z,10.00
2023-01-09T23:47:19.192Z,9.90
2023-01-09T23:49:47.247Z,9.90
2023-01-09T23:52:16.947Z,9.90
2023-01-09T23:54:45.044Z,9.90
2023-01-09T23:57:13.144Z,9.90
2023-01-09T23:59:41.948Z,9.90
